createdAt,value
2018-09-21T00:02:47.139Z,100396.00
2018-09-21T00:07:40.365Z,100385.00
2018-09-21T00:12:34.212Z,100389.00
2018-09-21T00:17:30.571Z,100381.00
2018-09-21T00:22:23.865Z,100377.00
2018-09-21T00:27:17.138Z,100366.00
2018-09-21T00:32:10.743Z,100364.00
2018-09-21T00:37:03.999Z,100361.00
2018-09-21T00:41:57.258Z,100368.00
2018-09-21T00:46:50.561Z,100364.00
2018-09-21T00:51:43.932Z,100361.00
2018-09-21T00:56:37.263Z,100351.00
2018-09-21T01:01:30.548Z,100335.00
2018-09-21T01:06:23.821Z,100324.00
2018-09-21T01:11:17.073Z,100312.00
2018-09-21T01:16:10.369Z,100303.00
2018-09-21T01:21:03.673Z,100295.00
2018-09-21T01:25:57.037Z,100291.00
2018-09-21T01:30:50.311Z,100288.00
2018-09-21T01:35:43.653Z,100279.00
2018-09-21T01:40:36.869Z,100275.00
2018-09-21T01:45:30.159Z,100263.00
2018-09-21T01:50:24.152Z,100256.00
2018-09-21T01:55:17.381Z,100257.00
2018-09-21T02:00:10.668Z,100243.00
2018-09-21T02:05:04.753Z,100236.00
2018-09-21T02:09:58.085Z,100232.00
2018-09-21T02:14:51.337Z,100225.00
2018-09-21T02:19:44.665Z,100221.00
2018-09-21T02:24:38.526Z,100213.00
2018-09-21T02:29:31.772Z,100203.00
2018-09-21T02:34:25.049Z,100196.00
2018-09-21T02:39:18.376Z,100183.00
2018-09-21T02:44:11.612Z,100175.00
2018-09-21T02:49:04.894Z,100163.00
2018-09-21T02:53:58.177Z,100153.00
2018-09-21T02:58:51.477Z,100146.00
2018-09-21T03:03:44.744Z,100139.00
2018-09-21T03:08:38.029Z,100132.00
2018-09-21T03:13:31.257Z,100133.00
2018-09-21T03:18:24.502Z,100122.00
2018-09-21T03:23:17.719Z,100104.00
2018-09-21T03:28:11.113Z,100089.00
2018-09-21T03:33:04.471Z,100078.00
2018-09-21T03:37:57.820Z,100075.00
2018-09-21T03:42:51.140Z,100061.00
2018-09-21T03:47:44.383Z,100052.00
2018-09-21T03:52:37.681Z,100051.00
2018-09-21T03:57:30.922Z,100044.00
2018-09-21T04:02:24.106Z,100031.00
2018-09-21T04:07:17.384Z,100033.00
2018-09-21T04:12:10.576Z,100024.00
2018-09-21T04:17:03.825Z,100014.00
2018-09-21T04:21:57.100Z,100005.00
2018-09-21T04:26:50.356Z,100003.00
2018-09-21T04:31:43.704Z,100009.00
2018-09-21T04:36:37.509Z,100008.00
2018-09-21T04:41:30.785Z,100005.00
2018-09-21T04:46:24.683Z,99999.00
2018-09-21T04:51:17.939Z,99995.00
2018-09-21T04:56:11.156Z,100001.00
2018-09-21T05:01:04.395Z,99988.00
2018-09-21T05:05:57.641Z,99981.00
2018-09-21T05:10:50.900Z,99980.00
2018-09-21T05:15:44.149Z,99984.00
2018-09-21T05:20:37.465Z,99979.00
2018-09-21T05:25:30.730Z,99973.00
2018-09-21T05:30:23.995Z,99963.00
2018-09-21T05:35:17.384Z,99957.00
2018-09-21T05:40:10.587Z,99970.00
2018-09-21T05:45:04.293Z,99969.00
2018-09-21T05:49:57.521Z,99968.00
2018-09-21T05:54:50.791Z,99957.00
2018-09-21T05:59:44.078Z,99958.00
2018-09-21T06:04:37.336Z,99964.00
2018-09-21T06:09:30.608Z,99959.00
2018-09-21T06:14:23.833Z,99962.00
2018-09-21T06:19:17.119Z,99966.00
2018-09-21T06:24:10.393Z,99965.00
2018-09-21T06:29:04.332Z,99959.00
2018-09-21T06:33:58.385Z,99976.00
2018-09-21T06:38:51.696Z,99978.00
2018-09-21T06:43:45.084Z,99964.00
2018-09-21T06:48:38.348Z,99947.00
2018-09-21T06:53:32.316Z,99959.00
2018-09-21T06:58:25.582Z,99964.00
2018-09-21T07:03:18.810Z,99976.00
2018-09-21T07:08:12.073Z,99980.00
2018-09-21T07:13:05.367Z,100006.00
2018-09-21T07:17:58.615Z,100000.00
2018-09-21T07:22:51.854Z,99982.00
2018-09-21T07:27:45.807Z,99972.00
2018-09-21T07:32:39.098Z,99957.00
2018-09-21T07:37:32.861Z,99967.00
2018-09-21T07:42:26.141Z,99970.00
2018-09-21T07:47:20.081Z,99957.00
2018-09-21T07:52:14.354Z,99926.00
2018-09-21T07:57:07.653Z,99931.00
2018-09-21T08:02:01.105Z,99947.00
2018-09-21T08:06:54.372Z,99969.00
2018-09-21T08:11:47.655Z,99948.00
2018-09-21T08:16:40.947Z,99955.00
2018-09-21T08:21:34.294Z,99958.00
2018-09-21T08:26:27.604Z,99959.00
2018-09-21T08:31:21.881Z,99958.00
2018-09-21T08:36:15.202Z,99975.00
2018-09-21T08:41:08.493Z,99982.00
2018-09-21T08:46:01.754Z,100000.00
2018-09-21T08:50:55.065Z,100006.00
2018-09-21T08:55:48.361Z,100029.00
2018-09-21T09:00:41.627Z,100023.00
2018-09-21T09:05:35.017Z,100156.00
2018-09-21T09:10:28.333Z,100208.00
2018-09-21T09:15:21.610Z,100230.00
2018-09-21T09:20:14.895Z,100273.00
2018-09-21T09:25:09.392Z,100267.00
2018-09-21T09:30:03.500Z,100254.00
2018-09-21T09:34:56.760Z,100246.00
2018-09-21T09:39:50.027Z,100258.00
2018-09-21T09:44:43.283Z,100270.00
2018-09-21T09:49:36.565Z,100278.00
2018-09-21T09:54:30.231Z,100298.00
2018-09-21T09:59:23.504Z,100296.00
2018-09-21T10:04:16.769Z,100289.00
2018-09-21T10:09:11.109Z,100287.00
2018-09-21T10:14:04.340Z,100300.00
2018-09-21T10:18:57.586Z,100292.00
2018-09-21T10:23:50.840Z,100304.00
2018-09-21T10:28:44.180Z,100303.00
2018-09-21T10:33:37.512Z,100307.00
2018-09-21T10:38:30.703Z,100315.00
2018-09-21T10:43:23.990Z,100321.00
2018-09-21T10:48:17.248Z,100313.00
2018-09-21T10:53:10.546Z,100299.00
2018-09-21T10:58:04.744Z,100294.00
2018-09-21T11:02:58.030Z,100307.00
2018-09-21T11:07:51.397Z,100309.00
2018-09-21T11:12:44.661Z,100322.00
2018-09-21T11:17:37.878Z,100323.00
2018-09-21T11:22:31.361Z,100309.00
2018-09-21T11:27:24.645Z,100300.00
2018-09-21T11:32:17.999Z,100289.00
2018-09-21T11:37:11.277Z,100284.00
2018-09-21T11:42:04.607Z,100302.00
2018-09-21T11:46:58.028Z,100320.00
2018-09-21T11:51:51.190Z,100332.00
2018-09-21T11:56:44.526Z,100327.00
2018-09-21T12:01:37.785Z,100315.00
2018-09-21T12:06:31.091Z,100313.00
2018-09-21T12:11:24.361Z,100322.00
2018-09-21T12:16:17.606Z,100348.00
2018-09-21T12:21:10.841Z,100371.00
2018-09-21T12:26:04.111Z,100369.00
2018-09-21T12:30:57.417Z,100379.00
2018-09-21T12:35:50.917Z,100399.00
2018-09-21T12:40:44.417Z,100410.00
2018-09-21T12:45:37.684Z,100410.00
2018-09-21T12:50:31.119Z,100422.00
2018-09-21T12:55:24.317Z,100431.00
2018-09-21T13:00:17.585Z,100443.00
2018-09-21T13:05:10.853Z,100446.00
2018-09-21T13:10:04.617Z,100462.00
2018-09-21T13:14:57.873Z,100461.00
2018-09-21T13:19:51.418Z,100463.00
2018-09-21T13:24:44.662Z,100471.00
2018-09-21T13:29:37.905Z,100480.00
2018-09-21T13:34:31.195Z,100486.00
2018-09-21T13:39:24.417Z,100491.00
2018-09-21T13:44:17.670Z,100497.00
2018-09-21T13:49:10.962Z,100506.00
2018-09-21T13:54:04.283Z,100514.00
2018-09-21T13:58:57.647Z,100513.00
2018-09-21T14:03:50.910Z,100505.00
2018-09-21T14:08:44.148Z,100521.00
2018-09-21T14:13:37.950Z,100526.00
2018-09-21T14:18:31.229Z,100543.00
2018-09-21T14:23:24.511Z,100547.00
2018-09-21T14:28:17.751Z,100555.00
2018-09-21T14:33:11.025Z,100569.00
2018-09-21T14:38:04.330Z,100562.00
2018-09-21T14:42:57.665Z,100573.00
2018-09-21T14:47:50.987Z,100576.00
2018-09-21T14:52:44.286Z,100576.00
2018-09-21T14:57:37.595Z,100594.00
2018-09-21T15:02:30.890Z,100596.00
2018-09-21T15:07:24.129Z,100610.00
2018-09-21T15:12:17.382Z,100617.00
2018-09-21T15:17:10.677Z,100614.00
2018-09-21T15:22:03.967Z,100622.00
2018-09-21T15:26:57.258Z,100628.00
2018-09-21T15:31:50.556Z,100641.00
2018-09-21T15:36:43.814Z,100636.00
2018-09-21T15:41:37.067Z,100645.00
2018-09-21T15:46:30.343Z,100642.00
2018-09-21T15:51:23.625Z,100644.00
2018-09-21T15:56:16.881Z,100648.00
2018-09-21T16:01:10.109Z,100661.00
2018-09-21T16:06:03.646Z,100670.00
2018-09-21T16:10:56.993Z,100673.00
2018-09-21T16:15:50.322Z,100676.00
2018-09-21T16:20:43.609Z,100672.00
2018-09-21T16:25:37.281Z,100682.00
2018-09-21T16:30:30.557Z,100677.00
2018-09-21T16:35:24.776Z,100687.00
2018-09-21T16:40:18.109Z,100690.00
2018-09-21T16:45:11.899Z,100693.00
2018-09-21T16:50:06.329Z,100693.00
2018-09-21T16:55:00.185Z,100691.00
2018-09-21T16:59:54.463Z,100695.00
2018-09-21T17:04:48.036Z,100704.00
2018-09-21T17:09:41.330Z,100706.00
2018-09-21T17:14:34.655Z,100720.00
2018-09-21T17:19:28.067Z,100726.00
2018-09-21T17:24:21.435Z,100747.00
2018-09-21T17:29:14.926Z,100746.00
2018-09-21T17:34:08.225Z,100762.00
2018-09-21T17:39:01.523Z,100760.00
2018-09-21T17:43:54.817Z,100774.00
2018-09-21T17:48:48.084Z,100783.00
2018-09-21T17:53:41.344Z,100797.00
2018-09-21T17:58:34.619Z,100804.00
2018-09-21T18:03:27.961Z,100822.00
2018-09-21T18:08:21.187Z,100825.00
2018-09-21T18:13:15.243Z,100834.00
2018-09-21T18:18:08.541Z,100845.00
2018-09-21T18:23:01.791Z,100849.00
2018-09-21T18:27:54.995Z,100858.00
2018-09-21T18:32:48.283Z,100859.00
2018-09-21T18:37:41.550Z,100872.00
2018-09-21T18:42:34.833Z,100884.00
2018-09-21T18:47:28.070Z,100886.00
2018-09-21T18:52:21.377Z,100896.00
2018-09-21T18:57:14.640Z,100900.00
2018-09-21T19:02:07.948Z,100914.00
2018-09-21T19:07:01.299Z,100924.00
2018-09-21T19:11:55.200Z,100947.00
2018-09-21T19:16:48.454Z,100958.00
2018-09-21T19:21:41.685Z,100966.00
2018-09-21T19:26:35.012Z,100985.00
2018-09-21T19:31:29.181Z,100987.00
2018-09-21T19:36:23.095Z,100996.00
2018-09-21T19:41:16.414Z,101006.00
2018-09-21T19:46:09.779Z,101010.00
2018-09-21T19:51:03.093Z,101027.00
2018-09-21T19:55:56.369Z,101025.00
2018-09-21T20:00:49.671Z,101036.00
2018-09-21T20:05:42.989Z,101037.00
2018-09-21T20:10:37.543Z,101049.00
2018-09-21T20:15:30.821Z,101056.00
2018-09-21T20:20:24.201Z,101046.00
2018-09-21T20:25:17.616Z,101051.00
2018-09-21T20:30:16.847Z,101060.00
2018-09-21T20:35:10.095Z,101067.00
2018-09-21T20:40:03.483Z,101077.00
2018-09-21T20:44:56.754Z,101080.00
2018-09-21T20:49:50.157Z,101094.00
2018-09-21T20:54:43.443Z,101102.00
2018-09-21T20:59:36.703Z,101102.00
2018-09-21T21:04:29.952Z,101107.00
2018-09-21T21:09:23.266Z,101110.00
2018-09-21T21:14:16.600Z,101115.00
2018-09-21T21:19:10.061Z,101114.00
2018-09-21T21:24:03.295Z,101118.00
2018-09-21T21:28:56.589Z,101132.00
2018-09-21T21:33:49.895Z,101134.00
2018-09-21T21:38:43.897Z,101139.00
2018-09-21T21:43:37.132Z,101152.00
2018-09-21T21:48:30.374Z,101162.00
2018-09-21T21:53:23.652Z,101168.00
2018-09-21T21:58:16.999Z,101169.00
2018-09-21T22:03:11.312Z,101174.00
2018-09-21T22:08:05.517Z,101173.00
2018-09-21T22:13:04.337Z,101185.00
2018-09-21T22:17:57.598Z,101196.00
2018-09-21T22:22:50.879Z,101201.00
2018-09-21T22:27:44.122Z,101211.00
2018-09-21T22:32:38.246Z,101215.00
2018-09-21T22:37:31.220Z,101227.00
2018-09-21T22:42:24.745Z,101223.00
2018-09-21T22:47:18.252Z,101224.00
2018-09-21T22:52:11.557Z,101233.00
2018-09-21T22:57:04.846Z,101238.00
2018-09-21T23:01:58.153Z,101245.00
2018-09-21T23:06:51.365Z,101239.00
2018-09-21T23:11:44.608Z,101253.00
2018-09-21T23:16:38.525Z,101248.00
2018-09-21T23:21:32.067Z,101246.00
2018-09-21T23:26:25.329Z,101257.00
2018-09-21T23:31:18.613Z,101263.00
2018-09-21T23:36:12.448Z,101271.00
2018-09-21T23:41:06.057Z,101283.00
2018-09-21T23:45:59.405Z,101288.00
2018-09-21T23:50:52.707Z,101292.00
2018-09-21T23:55:45.981Z,101289.00
